Time;durP1;ratioP1;P1;durP2;ratioP2;P2;SDS_P1;SDS_P2;PMS_P1;PMS_P2;Temp;Humidity;BMP_temperature;BMP_pressure;BME280_temperature;BME280_humidity;BME280_pressure;Samples;Min_cycle;Max_cycle;Signal;HPM_P1;HPM_P2
2023/12/06 00:01:25;;;;;;;16.27;7.55;;;;;;;;;;5090822;28;20028;-68
2023/12/06 00:03:51;;;;;;;14.07;7.60;;;;;;;;;;5091417;28;20118;-69
2023/12/06 00:06:16;;;;;;;13.98;7.57;;;;;;;;;;5090759;28;20162;-69
2023/12/06 00:08:42;;;;;;;13.90;7.75;;;;;;;;;;5090978;28;20028;-67
2023/12/06 00:11:08;;;;;;;23.88;8.00;;;;;;;;;;5091051;28;20024;-69
2023/12/06 00:13:33;;;;;;;14.60;8.00;;;;;;;;;;5090657;28;20498;-70
2023/12/06 00:16:00;;;;;;;15.38;7.32;;;;;;;;;;5088876;28;20024;-68
2023/12/06 00:18:26;;;;;;;18.42;8.18;;;;;;;;;;5091165;28;20036;-67
2023/12/06 00:20:51;;;;;;;12.75;7.70;;;;;;;;;;5091154;28;20410;-67
2023/12/06 00:23:17;;;;;;;10.00;7.05;;;;;;;;;;5090896;28;20032;-67
2023/12/06 00:25:43;;;;;;;16.98;6.90;;;;;;;;;;5090963;28;20040;-68
2023/12/06 00:28:08;;;;;;;18.48;7.80;;;;;;;;;;5090921;28;20442;-68
2023/12/06 00:30:34;;;;;;;14.70;7.90;;;;;;;;;;5090856;28;20016;-67
2023/12/06 00:32:59;;;;;;;16.05;7.35;;;;;;;;;;5090519;28;20377;-66
2023/12/06 00:35:25;;;;;;;15.50;8.07;;;;;;;;;;5091269;28;20024;-70
2023/12/06 00:37:50;;;;;;;17.20;7.57;;;;;;;;;;5090345;28;20035;-68
2023/12/06 00:40:16;;;;;;;14.30;7.85;;;;;;;;;;5090890;28;20086;-68
2023/12/06 00:42:41;;;;;;;14.07;7.15;;;;;;;;;;5090858;28;20032;-68
2023/12/06 00:45:07;;;;;;;14.43;7.53;;;;;;;;;;5088981;28;20040;-69
2023/12/06 00:47:33;;;;;;;14.30;7.43;;;;;;;;;;5090930;28;20024;-67
2023/12/06 00:49:58;;;;;;;13.05;7.88;;;;;;;;;;5090800;28;20053;-67
2023/12/06 00:52:24;;;;;;;15.32;7.25;;;;;;;;;;5090865;28;20025;-67
2023/12/06 00:54:50;;;;;;;18.95;7.72;;;;;;;;;;5090318;28;20052;-69
2023/12/06 00:57:15;;;;;;;13.55;7.75;;;;;;;;;;5090661;28;20488;-68
2023/12/06 00:59:41;;;;;;;19.77;7.07;;;;;;;;;;5090772;28;20024;-69
2023/12/06 01:02:06;;;;;;;13.05;6.97;;;;;;;;;;5091244;28;20031;-69
2023/12/06 01:04:36;;;;;;;10.30;6.35;;;;;;;;;;5094066;28;20035;-69
2023/12/06 01:07:02;;;;;;;16.42;7.85;;;;;;;;;;5093219;28;20028;-70
2023/12/06 01:09:27;;;;;;;15.32;7.18;;;;;;;;;;5093985;28;20028;-68
2023/12/06 01:11:53;;;;;;;20.40;7.15;;;;;;;;;;5092671;28;20392;-69
2023/12/06 01:14:18;;;;;;;14.57;7.10;;;;;;;;;;5093363;28;20035;-67
2023/12/06 01:16:44;;;;;;;10.43;6.85;;;;;;;;;;5093600;28;20027;-67
2023/12/06 01:19:09;;;;;;;13.32;7.32;;;;;;;;;;5091205;28;20032;-67
2023/12/06 01:21:35;;;;;;;12.73;7.40;;;;;;;;;;5093220;28;20028;-69
2023/12/06 01:24:00;;;;;;;11.93;6.95;;;;;;;;;;5091681;28;20523;-66
2023/12/06 07:35:08;;;;;;;12.13;5.68;;;;;;;;;;5102508;27;20416;-67
2023/12/06 07:37:34;;;;;;;7.72;5.18;;;;;;;;;;5106708;28;20057;-72
2023/12/06 07:40:00;;;;;;;7.05;5.28;;;;;;;;;;5108908;28;20026;-67
2023/12/06 07:42:25;;;;;;;11.15;5.90;;;;;;;;;;5090519;28;20065;-70
2023/12/06 07:44:51;;;;;;;14.07;5.35;;;;;;;;;;5088249;28;20039;-71
2023/12/06 07:47:18;;;;;;;6.60;5.35;;;;;;;;;;5089528;28;20028;-71
2023/12/06 07:49:43;;;;;;;7.40;5.30;;;;;;;;;;5088400;28;20020;-71
2023/12/06 07:52:09;;;;;;;9.50;5.60;;;;;;;;;;5088264;28;20034;-69
2023/12/06 07:54:35;;;;;;;7.43;5.20;;;;;;;;;;5088102;28;20166;-70
2023/12/06 07:57:00;;;;;;;7.30;5.43;;;;;;;;;;5089187;28;20020;-71
2023/12/06 07:59:26;;;;;;;10.45;5.70;;;;;;;;;;5089473;28;20090;-70
2023/12/06 08:01:52;;;;;;;7.15;4.43;;;;;;;;;;5091077;28;20103;-68
2023/12/06 08:04:18;;;;;;;10.07;5.53;;;;;;;;;;5089328;28;20117;-67
2023/12/06 08:06:43;;;;;;;10.48;5.05;;;;;;;;;;5089377;28;20024;-68
2023/12/06 08:09:12;;;;;;;9.45;5.32;;;;;;;;;;5089529;28;20032;-70
2023/12/06 08:11:41;;;;;;;9.07;4.88;;;;;;;;;;5089197;28;20020;-70
2023/12/06 08:14:07;;;;;;;10.90;5.45;;;;;;;;;;5089104;28;20028;-69
2023/12/06 08:16:33;;;;;;;7.55;5.10;;;;;;;;;;5089022;28;20024;-70
2023/12/06 08:18:58;;;;;;;8.93;5.30;;;;;;;;;;5088979;28;20086;-70
2023/12/06 08:21:24;;;;;;;7.20;4.80;;;;;;;;;;5089077;28;20074;-70
2023/12/06 08:23:50;;;;;;;7.82;5.35;;;;;;;;;;5088986;28;20094;-69
2023/12/06 08:26:15;;;;;;;8.43;5.40;;;;;;;;;;5088922;28;20039;-70
2023/12/06 08:28:41;;;;;;;7.38;5.10;;;;;;;;;;5088818;28;20036;-69
2023/12/06 08:31:08;;;;;;;11.20;5.15;;;;;;;;;;5088937;28;20024;-68
2023/12/06 08:33:34;;;;;;;8.70;4.75;;;;;;;;;;5088719;28;20044;-68
2023/12/06 08:35:59;;;;;;;8.43;5.75;;;;;;;;;;5088911;28;20024;-69
2023/12/06 08:38:25;;;;;;;6.55;4.70;;;;;;;;;;5089663;28;20119;-70
2023/12/06 08:40:51;;;;;;;9.43;5.35;;;;;;;;;;5096286;28;20031;-69
2023/12/06 08:43:16;;;;;;;6.53;5.00;;;;;;;;;;5088627;28;20479;-68
2023/12/06 08:45:42;;;;;;;13.70;5.00;;;;;;;;;;5090146;28;20398;-69
2023/12/06 08:48:08;;;;;;;9.07;5.03;;;;;;;;;;5095494;28;20027;-69
2023/12/06 08:50:35;;;;;;;6.80;5.10;;;;;;;;;;5095381;28;20024;-69
2023/12/06 08:53:00;;;;;;;17.52;5.00;;;;;;;;;;5095032;28;20034;-70
2023/12/06 08:55:26;;;;;;;8.50;4.82;;;;;;;;;;5095156;28;20048;-69
2023/12/06 08:57:51;;;;;;;8.52;5.10;;;;;;;;;;5095132;28;20024;-68
2023/12/06 09:00:17;;;;;;;8.00;5.45;;;;;;;;;;5095052;28;20498;-70
2023/12/06 09:02:43;;;;;;;13.90;6.10;;;;;;;;;;5095351;28;20066;-68
2023/12/06 09:05:12;;;;;;;12.07;5.90;;;;;;;;;;5095197;28;20115;-67
2023/12/06 09:07:41;;;;;;;14.30;5.35;;;;;;;;;;5094885;28;20085;-67
2023/12/06 09:10:08;;;;;;;8.25;6.07;;;;;;;;;;5095009;28;20444;-67
2023/12/06 09:12:34;;;;;;;9.07;5.38;;;;;;;;;;5094844;28;20369;-67
2023/12/06 09:14:59;;;;;;;8.05;5.25;;;;;;;;;;5094781;28;20065;-67
2023/12/06 09:17:25;;;;;;;7.60;5.18;;;;;;;;;;5094803;28;20672;-67
2023/12/06 09:19:51;;;;;;;7.22;4.90;;;;;;;;;;5094737;28;20024;-68
2023/12/06 09:22:17;;;;;;;6.63;4.90;;;;;;;;;;5094639;28;20418;-66
2023/12/06 09:24:44;;;;;;;11.43;5.78;;;;;;;;;;5085929;28;20056;-67
2023/12/06 09:27:09;;;;;;;8.75;5.32;;;;;;;;;;5091077;28;20485;-70
2023/12/06 09:29:35;;;;;;;7.93;5.63;;;;;;;;;;5077487;28;20063;-67
2023/12/06 09:32:00;;;;;;;9.68;5.43;;;;;;;;;;5074240;28;20032;-68
2023/12/06 09:34:26;;;;;;;11.35;6.80;;;;;;;;;;5073933;28;20044;-67
2023/12/06 09:36:51;;;;;;;14.27;6.88;;;;;;;;;;5074211;28;20049;-68
2023/12/06 09:39:20;;;;;;;12.80;6.53;;;;;;;;;;5073005;28;20032;-66
2023/12/06 09:41:46;;;;;;;13.68;6.03;;;;;;;;;;5073896;28;20021;-67
2023/12/06 09:44:15;;;;;;;13.15;6.57;;;;;;;;;;5072880;28;20029;-67
2023/12/06 09:46:43;;;;;;;11.10;6.03;;;;;;;;;;5073690;28;20057;-67
2023/12/06 09:49:09;;;;;;;9.18;6.20;;;;;;;;;;5073128;28;20016;-67
2023/12/06 09:51:34;;;;;;;9.18;6.00;;;;;;;;;;5072634;28;20029;-67
2023/12/06 09:54:00;;;;;;;7.75;5.55;;;;;;;;;;5071631;28;20055;-67
2023/12/06 09:56:26;;;;;;;7.47;5.78;;;;;;;;;;5072824;28;20456;-67
2023/12/06 09:58:51;;;;;;;8.63;5.55;;;;;;;;;;5073903;28;20044;-67
2023/12/06 10:01:17;;;;;;;8.63;5.55;;;;;;;;;;5073768;28;20079;-67
2023/12/06 10:03:43;;;;;;;7.85;5.43;;;;;;;;;;5073751;28;20025;-68
2023/12/06 10:06:09;;;;;;;11.85;5.75;;;;;;;;;;5073682;28;20549;-67
2023/12/06 10:08:35;;;;;;;7.95;5.50;;;;;;;;;;5073859;28;20024;-67
2023/12/06 10:11:04;;;;;;;9.35;5.63;;;;;;;;;;5073799;28;20016;-67
2023/12/06 10:13:41;;;;;;;9.93;5.90;;;;;;;;;;5073547;28;20032;-67
2023/12/06 10:16:13;;;;;;;9.80;5.72;;;;;;;;;;5075119;28;20044;-70
2023/12/06 10:18:40;;;;;;;8.52;5.57;;;;;;;;;;5093053;28;20034;-68
2023/12/06 10:21:06;;;;;;;9.95;5.63;;;;;;;;;;5093603;28;20027;-68
2023/12/06 10:23:31;;;;;;;8.77;5.68;;;;;;;;;;5080770;28;20044;-69
2023/12/06 10:25:57;;;;;;;8.25;5.50;;;;;;;;;;5071501;28;20031;-67
2023/12/06 10:28:23;;;;;;;10.73;5.47;;;;;;;;;;5071584;28;20040;-66
2023/12/06 10:31:08;;;;;;;9.90;6.05;;;;;;;;;;5070280;28;20064;-67
2023/12/06 10:33:34;;;;;;;11.93;5.72;;;;;;;;;;5071007;28;20097;-66
2023/12/06 10:36:02;;;;;;;8.38;5.07;;;;;;;;;;5071530;28;20021;-66
2023/12/06 10:38:28;;;;;;;8.00;5.07;;;;;;;;;;5071462;28;20511;-67
2023/12/06 10:40:55;;;;;;;7.93;5.03;;;;;;;;;;5071504;28;20032;-66
2023/12/06 10:43:22;;;;;;;9.85;5.38;;;;;;;;;;5071615;28;20396;-66
2023/12/06 10:45:50;;;;;;;8.82;5.53;;;;;;;;;;5071226;28;20077;-66
2023/12/06 10:48:17;;;;;;;7.70;5.32;;;;;;;;;;5071578;28;20392;-67
2023/12/06 10:50:43;;;;;;;9.25;5.38;;;;;;;;;;5071059;28;20431;-69
2023/12/06 10:53:14;;;;;;;8.32;5.70;;;;;;;;;;5070969;28;20040;-67
2023/12/06 10:55:40;;;;;;;7.53;5.70;;;;;;;;;;5071186;28;20040;-66
2023/12/06 10:58:07;;;;;;;7.95;5.68;;;;;;;;;;5071025;28;20024;-67
2023/12/06 11:00:33;;;;;;;9.18;5.60;;;;;;;;;;5070955;28;20503;-66
2023/12/06 11:02:59;;;;;;;9.02;5.55;;;;;;;;;;5070703;28;20040;-67
2023/12/06 11:05:27;;;;;;;6.60;5.20;;;;;;;;;;5070994;28;20032;-70
2023/12/06 11:08:20;;;;;;;8.57;5.40;;;;;;;;;;5070482;28;20029;-67
2023/12/06 11:11:06;;;;;;;7.60;5.72;;;;;;;;;;5071142;28;20512;-66
2023/12/06 11:13:56;;;;;;;6.57;5.15;;;;;;;;;;5070760;28;20032;-67
2023/12/06 11:16:28;;;;;;;6.47;5.13;;;;;;;;;;5069963;28;20027;-67
2023/12/06 11:18:54;;;;;;;13.10;5.50;;;;;;;;;;5066677;28;20020;-66
2023/12/06 11:21:21;;;;;;;10.18;5.35;;;;;;;;;;5069604;28;20055;-69
2023/12/06 11:23:47;;;;;;;7.90;5.68;;;;;;;;;;5069344;28;20024;-68
2023/12/06 11:26:13;;;;;;;8.38;5.63;;;;;;;;;;5069583;28;20366;-66
2023/12/06 11:28:40;;;;;;;9.63;5.55;;;;;;;;;;5069979;28;20030;-68
2023/12/06 11:31:07;;;;;;;10.57;6.00;;;;;;;;;;5070341;28;20082;-68
2023/12/06 11:33:33;;;;;;;13.52;6.05;;;;;;;;;;5069982;28;20640;-67
2023/12/06 11:35:59;;;;;;;11.73;5.93;;;;;;;;;;5070241;28;20123;-68
2023/12/06 11:38:34;;;;;;;22.95;6.57;;;;;;;;;;5070017;28;20809;-69
2023/12/06 11:41:00;;;;;;;14.55;5.97;;;;;;;;;;5069912;28;20029;-69
2023/12/06 11:43:39;;;;;;;10.98;6.28;;;;;;;;;;5069983;28;20032;-68
2023/12/06 11:46:09;;;;;;;16.85;6.55;;;;;;;;;;5070209;28;20472;-68
2023/12/06 11:48:37;;;;;;;18.17;6.00;;;;;;;;;;5069734;28;20618;-68
2023/12/06 11:51:04;;;;;;;13.00;6.40;;;;;;;;;;5069151;28;20769;-68
2023/12/06 11:53:30;;;;;;;9.60;5.88;;;;;;;;;;5070488;28;20036;-68
2023/12/06 11:55:56;;;;;;;10.85;6.03;;;;;;;;;;5070382;28;20032;-68
2023/12/06 11:58:28;;;;;;;9.05;5.78;;;;;;;;;;5070395;28;20070;-68
2023/12/06 12:00:54;;;;;;;7.75;5.32;;;;;;;;;;5070122;28;20029;-68
2023/12/06 12:03:20;;;;;;;13.27;5.70;;;;;;;;;;5069902;28;20028;-67
2023/12/06 12:05:46;;;;;;;9.85;5.22;;;;;;;;;;5068992;28;20387;-66
2023/12/06 12:08:12;;;;;;;8.80;6.18;;;;;;;;;;5070240;28;20024;-66
2023/12/06 12:10:43;;;;;;;7.05;5.20;;;;;;;;;;5070433;28;20027;-66
2023/12/06 12:13:23;;;;;;;;;;;;;;;;;;5070616;28;20057;-66
2023/12/06 12:16:00;;;;;;;8.68;5.38;;;;;;;;;;5070347;28;19919;-66
2023/12/06 12:18:27;;;;;;;7.00;4.82;;;;;;;;;;5070275;28;20032;-68
2023/12/06 12:20:53;;;;;;;12.88;5.40;;;;;;;;;;5072158;28;20056;-66
2023/12/06 12:23:18;;;;;;;6.07;5.18;;;;;;;;;;5073569;28;20048;-66
2023/12/06 12:25:48;;;;;;;6.38;5.00;;;;;;;;;;5073849;28;20380;-66
2023/12/06 12:28:18;;;;;;;7.40;4.78;;;;;;;;;;5072248;28;20023;-66
2023/12/06 12:30:50;;;;;;;10.30;4.95;;;;;;;;;;5072016;28;20033;-66
2023/12/06 12:33:17;;;;;;;12.85;5.88;;;;;;;;;;5072272;28;20044;-66
2023/12/06 12:35:43;;;;;;;7.40;5.25;;;;;;;;;;5073664;28;20052;-66
2023/12/06 12:38:09;;;;;;;6.00;4.90;;;;;;;;;;5073661;28;20071;-67
2023/12/06 12:40:35;;;;;;;6.70;5.18;;;;;;;;;;5073469;28;20052;-66
2023/12/06 12:43:02;;;;;;;6.47;4.90;;;;;;;;;;5073467;28;20060;-66
2023/12/06 12:45:28;;;;;;;7.03;5.22;;;;;;;;;;5073687;28;20032;-67
2023/12/06 12:47:55;;;;;;;8.45;5.30;;;;;;;;;;5073429;28;20377;-66
2023/12/06 12:50:21;;;;;;;8.18;5.00;;;;;;;;;;5073696;28;20059;-66
2023/12/06 12:52:53;;;;;;;9.93;5.53;;;;;;;;;;5073697;28;20036;-66
2023/12/06 12:55:19;;;;;;;9.38;4.97;;;;;;;;;;5073156;28;20032;-66
2023/12/06 12:57:46;;;;;;;7.32;4.93;;;;;;;;;;5073532;28;20028;-66
2023/12/06 13:00:22;;;;;;;6.57;5.03;;;;;;;;;;5073351;28;20055;-66
2023/12/06 13:02:49;;;;;;;8.13;5.10;;;;;;;;;;5073395;28;20428;-66
2023/12/06 13:05:16;;;;;;;8.98;5.15;;;;;;;;;;5073115;28;20096;-66
2023/12/06 13:07:42;;;;;;;7.32;4.90;;;;;;;;;;5073012;28;20021;-66
2023/12/06 13:10:08;;;;;;;6.15;4.93;;;;;;;;;;5073382;28;20028;-66
2023/12/06 13:12:37;;;;;;;5.47;4.35;;;;;;;;;;5071667;28;20035;-66
2023/12/06 13:15:05;;;;;;;7.22;5.30;;;;;;;;;;5073294;28;20086;-66
2023/12/06 13:17:31;;;;;;;5.32;4.47;;;;;;;;;;5072789;28;20029;-66
2023/12/06 13:19:57;;;;;;;7.97;5.13;;;;;;;;;;5072885;28;20119;-66
2023/12/06 13:22:23;;;;;;;6.90;4.90;;;;;;;;;;5073110;28;20369;-66
2023/12/06 13:24:48;;;;;;;8.85;5.60;;;;;;;;;;5072734;28;20032;-66
2023/12/06 13:27:14;;;;;;;7.63;4.90;;;;;;;;;;5072727;28;20082;-66
2023/12/06 13:29:40;;;;;;;6.63;5.30;;;;;;;;;;5072577;28;20082;-66
2023/12/06 13:32:07;;;;;;;8.50;4.82;;;;;;;;;;5072846;28;20036;-66
2023/12/06 13:34:33;;;;;;;10.13;5.03;;;;;;;;;;5072476;28;20110;-66
2023/12/06 13:36:58;;;;;;;7.13;4.70;;;;;;;;;;5071214;28;20455;-66
2023/12/06 13:39:26;;;;;;;7.00;4.53;;;;;;;;;;5071045;28;20029;-67
2023/12/06 13:41:55;;;;;;;6.68;4.80;;;;;;;;;;5072623;28;20078;-66
2023/12/06 13:44:21;;;;;;;6.00;4.70;;;;;;;;;;5072523;28;20032;-66
2023/12/06 13:46:47;;;;;;;6.97;4.70;;;;;;;;;;5072415;28;20396;-66
2023/12/06 13:49:13;;;;;;;8.75;5.32;;;;;;;;;;5072329;28;20029;-66
2023/12/06 13:51:39;;;;;;;7.30;5.13;;;;;;;;;;5072202;28;20055;-66
2023/12/06 13:54:04;;;;;;;8.52;5.03;;;;;;;;;;5072337;28;20035;-66
2023/12/06 13:56:30;;;;;;;7.07;4.72;;;;;;;;;;5072184;28;20404;-67
2023/12/06 13:58:56;;;;;;;6.47;4.70;;;;;;;;;;5072132;28;20020;-66
2023/12/06 14:01:21;;;;;;;5.55;4.55;;;;;;;;;;5071973;28;20033;-66
2023/12/06 14:03:47;;;;;;;7.32;4.70;;;;;;;;;;5072030;28;20040;-66
2023/12/06 14:06:13;;;;;;;7.35;4.47;;;;;;;;;;5071859;28;20024;-66
2023/12/06 14:08:38;;;;;;;7.32;4.85;;;;;;;;;;5071972;28;20039;-66
2023/12/06 14:11:04;;;;;;;5.82;4.68;;;;;;;;;;5071856;28;20025;-66
2023/12/06 14:13:33;;;;;;;5.25;4.47;;;;;;;;;;5071678;28;20032;-67
2023/12/06 14:15:59;;;;;;;6.57;4.65;;;;;;;;;;5071858;28;20029;-66
2023/12/06 14:18:24;;;;;;;5.40;4.45;;;;;;;;;;5071693;28;20078;-66
2023/12/06 14:20:50;;;;;;;6.30;4.85;;;;;;;;;;5071956;28;20024;-66
2023/12/06 14:23:17;;;;;;;6.30;4.55;;;;;;;;;;5071706;28;20393;-67
2023/12/06 14:25:43;;;;;;;5.32;4.40;;;;;;;;;;5071667;28;20484;-67
2023/12/06 14:28:08;;;;;;;6.78;4.82;;;;;;;;;;5071483;28;20071;-66
2023/12/06 14:30:34;;;;;;;7.75;4.65;;;;;;;;;;5071540;28;20503;-66
2023/12/06 14:33:00;;;;;;;7.03;4.63;;;;;;;;;;5071469;28;20036;-66
2023/12/06 14:35:25;;;;;;;7.45;5.55;;;;;;;;;;5071318;28;20029;-66
2023/12/06 14:37:53;;;;;;;5.70;4.70;;;;;;;;;;5071667;28;20043;-67
2023/12/06 14:40:19;;;;;;;7.13;5.20;;;;;;;;;;5071275;28;20055;-67
2023/12/06 14:42:45;;;;;;;6.25;5.00;;;;;;;;;;5070773;28;20064;-66
2023/12/06 14:45:12;;;;;;;5.57;4.40;;;;;;;;;;5071022;28;20055;-66
2023/12/06 14:47:39;;;;;;;5.65;4.68;;;;;;;;;;5071282;28;20033;-66
2023/12/06 14:50:08;;;;;;;5.38;4.55;;;;;;;;;;5071016;28;20523;-67
2023/12/06 14:52:34;;;;;;;5.95;4.55;;;;;;;;;;5071461;28;20032;-67
2023/12/06 14:54:59;;;;;;;6.15;4.35;;;;;;;;;;5069738;28;20419;-67
2023/12/06 14:57:25;;;;;;;5.93;4.60;;;;;;;;;;5070906;28;20025;-66
2023/12/06 14:59:50;;;;;;;7.20;4.70;;;;;;;;;;5071030;28;20028;-67
2023/12/06 15:02:16;;;;;;;6.03;4.70;;;;;;;;;;5070912;28;20059;-67
2023/12/06 15:04:42;;;;;;;5.93;4.60;;;;;;;;;;5070926;28;20067;-66
2023/12/06 15:07:07;;;;;;;5.95;4.47;;;;;;;;;;5071078;28;20041;-67
2023/12/06 15:09:33;;;;;;;7.80;4.60;;;;;;;;;;5070924;28;20024;-66
2023/12/06 15:11:59;;;;;;;5.45;4.40;;;;;;;;;;5069420;28;20028;-67
2023/12/06 15:14:24;;;;;;;6.18;4.30;;;;;;;;;;5070879;28;20051;-67
2023/12/06 15:16:53;;;;;;;6.18;4.30;;;;;;;;;;5070525;28;20146;-66
2023/12/06 15:19:19;;;;;;;5.93;4.70;;;;;;;;;;5070756;28;20036;-66
2023/12/06 15:21:44;;;;;;;6.40;4.68;;;;;;;;;;5070796;28;20052;-67
2023/12/06 15:24:10;;;;;;;15.98;5.07;;;;;;;;;;5070535;28;20118;-65
2023/12/06 15:26:36;;;;;;;7.38;4.95;;;;;;;;;;5070772;28;20025;-66
2023/12/06 15:29:02;;;;;;;8.73;4.93;;;;;;;;;;5070895;28;20035;-66
2023/12/06 15:31:28;;;;;;;8.75;4.80;;;;;;;;;;5070808;28;20024;-66
2023/12/06 15:33:54;;;;;;;7.75;4.88;;;;;;;;;;5071265;28;20058;-66
2023/12/06 15:36:21;;;;;;;7.53;5.00;;;;;;;;;;5072132;28;20032;-66
2023/12/06 15:38:47;;;;;;;9.88;5.13;;;;;;;;;;5072347;28;20078;-65
2023/12/06 15:41:15;;;;;;;9.50;5.57;;;;;;;;;;5072079;28;20025;-66
2023/12/06 15:43:41;;;;;;;6.78;4.57;;;;;;;;;;5071979;28;20053;-66
2023/12/06 15:46:08;;;;;;;7.60;4.90;;;;;;;;;;5071988;28;20103;-66
2023/12/06 15:48:34;;;;;;;9.35;4.95;;;;;;;;;;5072032;28;20013;-65
2023/12/06 15:51:01;;;;;;;10.90;4.78;;;;;;;;;;5071810;28;20028;-68
2023/12/06 15:53:26;;;;;;;7.60;4.72;;;;;;;;;;5070524;28;20060;-69
2023/12/06 15:55:52;;;;;;;8.98;4.85;;;;;;;;;;5071208;28;20606;-68
2023/12/06 15:58:19;;;;;;;12.07;5.15;;;;;;;;;;5074898;28;20029;-68
2023/12/06 16:00:44;;;;;;;7.47;5.00;;;;;;;;;;5074360;28;20028;-69
2023/12/06 16:03:10;;;;;;;10.93;4.90;;;;;;;;;;5074318;28;20024;-69
2023/12/06 16:05:35;;;;;;;8.18;4.57;;;;;;;;;;5074579;28;20028;-69
2023/12/06 16:08:01;;;;;;;10.82;4.82;;;;;;;;;;5074359;28;20048;-69
2023/12/06 16:10:27;;;;;;;8.82;4.88;;;;;;;;;;5074205;28;20025;-67
2023/12/06 16:12:52;;;;;;;10.63;5.10;;;;;;;;;;5074243;28;20032;-69
2023/12/06 16:15:18;;;;;;;9.15;4.65;;;;;;;;;;5074149;28;20039;-67
2023/12/06 16:17:44;;;;;;;13.90;5.10;;;;;;;;;;5074458;28;20023;-66
2023/12/06 16:20:10;;;;;;;8.93;4.82;;;;;;;;;;5077181;28;20036;-68
2023/12/06 16:22:37;;;;;;;10.80;4.97;;;;;;;;;;5086186;28;20036;-68
2023/12/06 16:25:05;;;;;;;17.02;4.97;;;;;;;;;;5095751;28;20046;-68
2023/12/06 16:27:31;;;;;;;11.15;5.40;;;;;;;;;;5083476;28;20108;-64
2023/12/06 16:29:57;;;;;;;10.82;4.50;;;;;;;;;;5070075;28;20104;-64
2023/12/06 16:32:22;;;;;;;13.93;5.43;;;;;;;;;;5067180;28;20025;-65
2023/12/06 16:34:50;;;;;;;14.35;4.72;;;;;;;;;;5069792;28;20129;-64
